createdAt,value
2022-12-27T00:00:08.534Z,91.58
2022-12-27T00:02:55.840Z,91.95
2022-12-27T00:05:23.822Z,92.15
2022-12-27T00:07:51.916Z,92.27
2022-12-27T00:10:20.469Z,91.93
2022-12-27T00:12:47.432Z,92.05
2022-12-27T00:15:15.227Z,91.90
2022-12-27T00:17:42.246Z,91.94
2022-12-27T00:20:11.603Z,92.24
2022-12-27T00:22:39.525Z,92.25
2022-12-27T00:25:08.818Z,92.14
2022-12-27T00:27:36.420Z,91.95
2022-12-27T00:30:04.978Z,91.41
2022-12-27T00:32:32.096Z,91.01
2022-12-27T00:34:59.421Z,90.90
2022-12-27T00:37:26.603Z,90.65
2022-12-27T00:39:54.430Z,90.37
2022-12-27T00:42:22.125Z,90.81
2022-12-27T00:44:49.523Z,90.76
2022-12-27T00:47:16.472Z,90.95
2022-12-27T00:49:45.548Z,91.28
2022-12-27T00:52:12.782Z,90.46
2022-12-27T00:54:41.532Z,91.16
2022-12-27T00:57:09.006Z,91.75
2022-12-27T00:59:36.345Z,92.15
2022-12-27T01:02:03.644Z,92.32
2022-12-27T01:04:31.162Z,92.36
2022-12-27T01:06:58.203Z,92.52
2022-12-27T01:09:25.608Z,93.04
2022-12-27T01:11:53.578Z,92.77
2022-12-27T01:14:21.349Z,92.68
2022-12-27T01:16:49.409Z,93.31
2022-12-27T01:19:17.052Z,93.08
2022-12-27T01:21:44.451Z,92.72
2022-12-27T01:24:12.473Z,93.00
2022-12-27T01:26:39.837Z,92.71
2022-12-27T01:29:07.674Z,92.58
2022-12-27T01:31:36.066Z,92.36
2022-12-27T01:34:03.534Z,92.32
2022-12-27T01:36:31.900Z,91.91
2022-12-27T01:39:00.281Z,92.33
2022-12-27T01:42:01.966Z,92.44
2022-12-27T01:44:43.041Z,92.91
2022-12-27T01:47:13.153Z,92.72
2022-12-27T01:50:12.753Z,92.97
2022-12-27T01:52:42.334Z,93.01
2022-12-27T01:55:24.799Z,93.02
2022-12-27T01:57:57.659Z,93.03
2022-12-27T02:00:25.291Z,93.62
2022-12-27T02:02:53.052Z,93.66
2022-12-27T02:05:24.440Z,93.87
2022-12-27T02:08:26.286Z,93.38
2022-12-27T02:10:55.048Z,93.63
2022-12-27T02:13:22.791Z,93.32
2022-12-27T02:15:51.494Z,93.42
2022-12-27T02:18:19.329Z,93.14
2022-12-27T02:21:44.842Z,93.35
2022-12-27T02:24:49.768Z,93.13
2022-12-27T02:27:49.681Z,92.79
2022-12-27T02:30:16.913Z,92.49
2022-12-27T02:33:06.731Z,92.67
2022-12-27T02:35:59.798Z,92.82
2022-12-27T02:38:38.474Z,92.70
2022-12-27T02:41:26.741Z,92.90
2022-12-27T02:44:16.946Z,92.72
2022-12-27T02:47:03.922Z,93.03
2022-12-27T02:49:53.027Z,92.82
2022-12-27T02:53:08.472Z,92.94
2022-12-27T02:56:16.634Z,92.65
2022-12-27T02:58:55.584Z,92.58
2022-12-27T03:02:11.603Z,92.86
2022-12-27T03:05:04.820Z,92.82
2022-12-27T03:07:49.591Z,92.24
2022-12-27T03:11:01.954Z,92.52
2022-12-27T03:14:07.950Z,92.33
2022-12-27T03:16:41.657Z,92.33
2022-12-27T03:22:43.959Z,92.49
2022-12-27T03:25:28.307Z,92.44
2022-12-27T03:28:20.614Z,92.63
2022-12-27T03:31:14.090Z,92.79
2022-12-27T03:33:45.388Z,92.52
2022-12-27T03:36:37.574Z,92.83
2022-12-27T03:39:26.257Z,93.02
2022-12-27T03:42:38.952Z,93.41
2022-12-27T03:45:06.676Z,93.00
2022-12-27T03:47:50.128Z,93.42
2022-12-27T03:50:25.954Z,93.19
2022-12-27T03:52:59.245Z,93.45
2022-12-27T03:55:32.992Z,93.61
2022-12-27T03:58:01.188Z,93.35
2022-12-27T04:00:29.534Z,93.54
2022-12-27T04:02:57.525Z,93.11
2022-12-27T04:05:24.807Z,92.91
2022-12-27T04:08:11.526Z,92.86
2022-12-27T04:10:57.389Z,93.00
2022-12-27T04:13:43.928Z,92.80
2022-12-27T04:16:29.589Z,92.27
2022-12-27T04:19:15.740Z,92.30
2022-12-27T04:22:01.625Z,92.26
2022-12-27T04:24:47.877Z,91.99
2022-12-27T04:27:33.840Z,92.32
2022-12-27T04:30:20.983Z,91.87
2022-12-27T04:36:06.374Z,92.06
2022-12-27T04:38:34.479Z,91.66
2022-12-27T04:41:19.932Z,92.22
2022-12-27T04:44:05.961Z,92.18
2022-12-27T04:46:51.859Z,92.23
2022-12-27T04:49:44.309Z,91.84
2022-12-27T04:52:33.775Z,92.29
2022-12-27T04:55:12.640Z,91.92
2022-12-27T04:57:40.232Z,92.02
2022-12-27T05:00:27.124Z,92.09
2022-12-27T05:02:55.162Z,91.87
2022-12-27T05:05:24.629Z,91.90
2022-12-27T05:08:11.660Z,92.24
2022-12-27T05:11:01.530Z,92.16
2022-12-27T05:13:48.473Z,92.23
2022-12-27T05:16:17.335Z,91.82
2022-12-27T05:18:44.926Z,91.89
2022-12-27T05:21:18.274Z,92.01
2022-12-27T05:24:05.840Z,91.82
2022-12-27T05:26:34.429Z,91.96
2022-12-27T05:29:02.132Z,91.73
2022-12-27T05:31:30.171Z,91.91
2022-12-27T05:33:59.411Z,91.52
2022-12-27T05:36:28.495Z,91.18
2022-12-27T05:38:56.069Z,91.05
2022-12-27T05:44:07.456Z,91.48
2022-12-27T05:46:35.889Z,91.60
2022-12-27T05:49:03.568Z,91.65
2022-12-27T05:51:30.963Z,91.40
2022-12-27T05:53:57.952Z,91.27
2022-12-27T05:56:26.436Z,91.21
2022-12-27T05:58:54.489Z,91.57
2022-12-27T06:01:22.197Z,91.35
2022-12-27T06:03:49.497Z,91.12
2022-12-27T06:06:16.997Z,91.09
2022-12-27T06:08:44.191Z,90.91
2022-12-27T06:11:17.395Z,90.62
2022-12-27T06:13:52.190Z,90.28
2022-12-27T06:16:21.533Z,90.60
2022-12-27T06:18:48.891Z,90.64
2022-12-27T06:21:21.791Z,90.51
2022-12-27T06:23:49.731Z,90.75
2022-12-27T06:26:27.983Z,90.42
2022-12-27T06:28:57.087Z,90.58
2022-12-27T06:31:26.526Z,90.66
2022-12-27T06:33:54.229Z,89.76
2022-12-27T06:36:23.949Z,89.91
2022-12-27T06:38:51.638Z,89.96
2022-12-27T06:41:22.780Z,89.55
2022-12-27T06:46:45.075Z,89.50
2022-12-27T06:49:12.275Z,89.86
2022-12-27T06:51:59.501Z,89.08
2022-12-27T06:54:31.199Z,89.03
2022-12-27T06:57:00.723Z,88.75
2022-12-27T06:59:29.361Z,88.58
2022-12-27T07:01:56.521Z,88.82
2022-12-27T07:04:24.268Z,88.61
2022-12-27T07:06:51.215Z,88.49
2022-12-27T07:09:18.625Z,88.33
2022-12-27T07:11:46.021Z,88.00
2022-12-27T07:14:13.455Z,88.20
2022-12-27T07:16:48.201Z,88.03
2022-12-27T07:19:21.410Z,87.66
2022-12-27T07:22:01.759Z,87.39
2022-12-27T07:24:31.031Z,87.43
2022-12-27T07:26:58.119Z,87.25
2022-12-27T07:29:25.989Z,87.19
2022-12-27T07:31:53.119Z,87.51
2022-12-27T07:34:23.731Z,87.33
2022-12-27T07:36:55.231Z,87.31
2022-12-27T07:39:28.816Z,86.79
2022-12-27T07:41:55.954Z,86.08
2022-12-27T07:44:23.497Z,86.39
2022-12-27T07:46:51.401Z,86.03
2022-12-27T07:49:34.469Z,86.39
2022-12-27T07:52:01.545Z,86.65
2022-12-27T07:54:30.576Z,86.45
2022-12-27T07:57:00.277Z,86.43
2022-12-27T07:59:32.789Z,86.62
2022-12-27T08:02:06.304Z,86.21
2022-12-27T08:04:37.427Z,85.69
2022-12-27T08:07:08.232Z,85.42
2022-12-27T08:09:39.334Z,84.91
2022-12-27T08:15:06.575Z,84.13
2022-12-27T08:20:29.629Z,83.47
2022-12-27T08:23:01.129Z,83.85
2022-12-27T08:25:29.370Z,84.09
2022-12-27T08:28:07.966Z,83.41
2022-12-27T08:30:35.942Z,83.46
2022-12-27T08:33:14.089Z,83.88
2022-12-27T08:35:53.116Z,83.70
2022-12-27T08:38:26.437Z,84.24
2022-12-27T08:40:55.941Z,84.41
2022-12-27T08:43:23.921Z,83.83
2022-12-27T08:45:59.679Z,83.78
2022-12-27T08:48:29.354Z,83.55
2022-12-27T08:50:58.673Z,83.76
2022-12-27T08:53:26.916Z,83.57
2022-12-27T08:55:59.316Z,83.19
2022-12-27T08:58:33.853Z,83.55
2022-12-27T09:01:09.091Z,83.23
2022-12-27T09:06:44.128Z,82.39
2022-12-27T09:09:12.201Z,82.37
2022-12-27T09:17:33.085Z,82.59
2022-12-27T09:20:20.704Z,82.35
2022-12-27T09:22:48.223Z,81.88
2022-12-27T09:25:15.560Z,82.02
2022-12-27T09:27:43.077Z,81.57
2022-12-27T09:30:10.460Z,81.24
2022-12-27T09:32:38.207Z,81.64
2022-12-27T09:35:20.015Z,80.44
2022-12-27T09:40:30.974Z,80.11
2022-12-27T09:43:22.219Z,80.57
2022-12-27T09:45:58.085Z,80.40
2022-12-27T09:48:36.471Z,79.97
2022-12-27T09:51:11.715Z,78.83
2022-12-27T09:54:07.367Z,79.00
2022-12-27T09:57:09.560Z,78.19
2022-12-27T09:59:34.019Z,78.62
2022-12-27T10:02:01.398Z,78.61
2022-12-27T10:05:09.713Z,79.05
2022-12-27T10:07:28.365Z,79.92
2022-12-27T10:10:26.703Z,79.92
2022-12-27T10:13:03.939Z,80.79
2022-12-27T10:15:40.381Z,80.48
2022-12-27T10:18:21.745Z,81.02
2022-12-27T10:21:15.243Z,80.37
2022-12-27T10:23:53.115Z,80.49
2022-12-27T10:26:20.950Z,80.80
2022-12-27T10:28:57.142Z,80.55
2022-12-27T10:31:26.479Z,80.51
2022-12-27T10:33:53.922Z,80.60
2022-12-27T10:36:31.054Z,81.19
2022-12-27T10:38:58.252Z,81.03
2022-12-27T10:41:32.133Z,81.83
2022-12-27T10:43:59.292Z,82.21
2022-12-27T10:46:33.088Z,82.15
2022-12-27T10:49:21.032Z,82.67
2022-12-27T10:51:51.501Z,83.28
2022-12-27T10:54:23.829Z,83.24
2022-12-27T10:56:51.445Z,83.45
2022-12-27T10:59:18.400Z,83.50
2022-12-27T11:01:51.382Z,83.66
2022-12-27T11:04:55.020Z,84.29
2022-12-27T11:07:22.581Z,84.72
2022-12-27T11:09:51.355Z,84.64
2022-12-27T11:12:20.721Z,84.98
2022-12-27T11:15:00.080Z,85.25
2022-12-27T11:17:51.649Z,84.80
2022-12-27T11:20:55.663Z,85.23
2022-12-27T11:23:25.844Z,84.65
2022-12-27T11:25:59.233Z,84.65
2022-12-27T11:28:42.058Z,85.22
2022-12-27T11:31:18.439Z,85.85
2022-12-27T11:34:19.469Z,85.65
2022-12-27T11:36:50.136Z,85.69
2022-12-27T11:39:39.406Z,85.71
2022-12-27T11:42:18.012Z,84.98
2022-12-27T11:45:16.521Z,85.22
2022-12-27T11:47:50.242Z,85.31
2022-12-27T11:50:42.821Z,85.06
2022-12-27T12:00:22.563Z,83.98
2022-12-27T12:03:23.595Z,84.00
2022-12-27T12:05:56.605Z,83.47
2022-12-27T12:08:40.593Z,83.90
2022-12-27T12:11:18.048Z,83.60
2022-12-27T12:14:04.277Z,83.67
2022-12-27T12:16:34.835Z,83.40
2022-12-27T12:19:19.999Z,83.30
2022-12-27T12:22:16.816Z,83.52
2022-12-27T12:25:01.965Z,83.72
2022-12-27T12:27:47.624Z,84.60
2022-12-27T12:30:38.030Z,84.21
2022-12-27T12:33:12.433Z,84.80
2022-12-27T12:36:16.680Z,84.92
2022-12-27T12:39:02.470Z,84.81
2022-12-27T12:42:00.341Z,85.25
2022-12-27T12:44:58.606Z,85.21
2022-12-27T12:47:28.642Z,85.33
2022-12-27T12:50:13.732Z,85.81
2022-12-27T12:53:02.623Z,85.72
2022-12-27T12:56:05.537Z,86.08
2022-12-27T12:58:49.092Z,85.70
2022-12-27T13:01:58.072Z,85.94
2022-12-27T13:04:37.308Z,86.36
2022-12-27T13:07:37.754Z,85.91
2022-12-27T13:10:45.209Z,86.19
2022-12-27T13:13:23.561Z,86.46
2022-12-27T13:16:12.545Z,86.18
2022-12-27T13:19:20.836Z,86.02
2022-12-27T13:21:59.865Z,85.89
2022-12-27T13:25:13.827Z,86.38
2022-12-27T13:28:06.524Z,86.70
2022-12-27T13:30:58.761Z,86.54
2022-12-27T13:33:58.289Z,86.53
2022-12-27T13:36:35.027Z,87.40
2022-12-27T13:39:24.255Z,87.53
2022-12-27T13:42:13.433Z,87.54
2022-12-27T13:44:55.721Z,88.04
2022-12-27T13:47:56.001Z,87.83
2022-12-27T13:53:54.310Z,89.34
2022-12-27T13:59:47.365Z,89.06
2022-12-27T14:02:21.185Z,88.86
2022-12-27T14:05:00.817Z,89.15
2022-12-27T14:08:19.194Z,89.14
2022-12-27T14:11:01.270Z,89.22
2022-12-27T14:19:57.422Z,87.64
2022-12-27T14:22:53.801Z,87.69
2022-12-27T14:25:35.595Z,87.73
2022-12-27T14:28:21.831Z,87.84
2022-12-27T14:31:17.441Z,88.20
2022-12-27T14:33:56.903Z,88.27
2022-12-27T14:36:42.720Z,88.07
2022-12-27T14:39:32.160Z,88.03
2022-12-27T14:42:33.122Z,88.15
2022-12-27T14:45:56.992Z,88.05
2022-12-27T14:52:00.035Z,88.29
2022-12-27T14:54:34.102Z,89.01
2022-12-27T14:57:37.357Z,89.26
2022-12-27T15:00:25.512Z,89.48
2022-12-27T15:03:19.339Z,90.01
2022-12-27T15:06:22.566Z,90.50
2022-12-27T15:09:20.221Z,90.83
2022-12-27T15:12:37.966Z,91.31
2022-12-27T15:15:23.976Z,90.78
2022-12-27T15:21:27.640Z,90.49
2022-12-27T15:24:07.267Z,90.44
2022-12-27T15:26:49.367Z,90.21
2022-12-27T15:29:43.289Z,89.83
2022-12-27T15:38:54.793Z,89.47
2022-12-27T15:41:49.819Z,88.73
2022-12-27T15:44:25.678Z,88.73
2022-12-27T15:46:59.352Z,87.95
2022-12-27T15:49:35.583Z,87.13
2022-12-27T15:52:17.552Z,87.42
2022-12-27T15:55:09.055Z,86.26
2022-12-27T15:57:45.409Z,85.50
2022-12-27T16:00:28.753Z,86.05
2022-12-27T16:03:27.345Z,86.43
2022-12-27T16:05:57.145Z,87.20
2022-12-27T16:08:27.325Z,88.21
2022-12-27T16:10:56.383Z,88.08
2022-12-27T16:13:23.568Z,88.96
2022-12-27T16:16:00.342Z,89.06
2022-12-27T16:18:33.583Z,88.88
2022-12-27T16:21:12.519Z,88.76
2022-12-27T16:23:48.766Z,89.19
2022-12-27T16:26:18.118Z,88.83
2022-12-27T16:29:18.542Z,88.77
2022-12-27T16:32:02.907Z,88.47
2022-12-27T16:34:32.350Z,87.94
2022-12-27T16:37:05.169Z,88.54
2022-12-27T16:40:08.423Z,88.56
2022-12-27T16:42:57.216Z,88.38
2022-12-27T16:45:40.827Z,88.42
2022-12-27T16:48:44.444Z,89.02
2022-12-27T16:51:51.976Z,89.12
2022-12-27T16:55:00.634Z,89.29
2022-12-27T16:57:45.487Z,89.14
2022-12-27T17:00:43.502Z,89.20
2022-12-27T17:03:41.251Z,89.54
2022-12-27T17:06:31.866Z,89.56
2022-12-27T17:09:09.374Z,89.59
2022-12-27T17:11:41.498Z,89.47
2022-12-27T17:17:19.114Z,89.35
2022-12-27T17:20:01.527Z,88.85
2022-12-27T17:22:35.074Z,89.17
2022-12-27T17:25:23.028Z,88.88
2022-12-27T17:28:06.036Z,88.67
2022-12-27T17:31:07.308Z,88.56
2022-12-27T17:33:43.739Z,88.74
2022-12-27T17:36:37.339Z,88.33
2022-12-27T17:39:13.838Z,88.06
2022-12-27T17:42:33.322Z,87.57
2022-12-27T17:45:08.101Z,87.67
2022-12-27T17:47:57.130Z,87.12
2022-12-27T17:50:27.182Z,86.91
2022-12-27T17:53:32.673Z,86.44
2022-12-27T17:59:36.922Z,84.12
2022-12-27T18:02:16.910Z,83.33
2022-12-27T18:04:51.669Z,83.33
2022-12-27T18:07:29.746Z,81.99
2022-12-27T18:10:24.659Z,81.84
2022-12-27T18:12:56.494Z,81.12
2022-12-27T18:15:38.527Z,81.47
2022-12-27T18:18:09.706Z,80.41
2022-12-27T18:20:44.667Z,78.40
2022-12-27T18:23:19.310Z,78.00
2022-12-27T18:25:54.948Z,77.27
2022-12-27T18:28:33.802Z,76.76
2022-12-27T18:31:36.531Z,75.85
2022-12-27T18:34:37.762Z,75.56
2022-12-27T18:37:10.966Z,74.59
2022-12-27T18:39:52.213Z,74.34
2022-12-27T18:45:43.997Z,71.20
2022-12-27T18:48:19.836Z,71.47
2022-12-27T18:50:59.850Z,71.00
2022-12-27T18:53:51.538Z,69.77
2022-12-27T18:56:34.741Z,69.37
2022-12-27T18:59:31.086Z,69.20
2022-12-27T19:02:01.507Z,69.05
2022-12-27T19:04:31.814Z,69.48
2022-12-27T19:07:10.907Z,70.43
2022-12-27T19:09:42.667Z,69.93
2022-12-27T19:12:27.684Z,69.48
2022-12-27T19:14:55.115Z,68.68
2022-12-27T19:17:43.352Z,68.87
2022-12-27T19:20:32.526Z,69.30
2022-12-27T19:23:30.455Z,67.92
2022-12-27T19:29:24.559Z,67.22
2022-12-27T19:31:58.636Z,67.12
2022-12-27T19:34:43.263Z,67.37
2022-12-27T19:37:13.720Z,67.35
2022-12-27T19:39:41.801Z,67.11
2022-12-27T19:42:19.080Z,68.01
2022-12-27T19:44:47.511Z,68.39
2022-12-27T19:47:14.935Z,68.31
2022-12-27T19:49:43.955Z,68.48
2022-12-27T19:55:19.687Z,68.85
2022-12-27T19:57:47.900Z,69.55
2022-12-27T20:00:18.471Z,69.36
2022-12-27T20:02:49.861Z,69.90
2022-12-27T20:06:14.731Z,70.02
2022-12-27T20:08:26.307Z,69.86
2022-12-27T20:11:00.564Z,70.10
2022-12-27T20:13:37.009Z,70.83
2022-12-27T20:16:05.606Z,70.45
2022-12-27T20:21:23.666Z,70.95
2022-12-27T20:24:02.941Z,71.56
2022-12-27T20:26:59.389Z,71.52
2022-12-27T20:29:27.675Z,71.63
2022-12-27T20:31:57.087Z,71.82
2022-12-27T20:35:07.230Z,72.10
2022-12-27T20:37:38.060Z,72.22
2022-12-27T20:40:24.895Z,72.09
2022-12-27T20:42:56.223Z,72.41
2022-12-27T20:48:28.631Z,72.74
2022-12-27T20:50:56.703Z,72.70
2022-12-27T20:53:38.861Z,72.72
2022-12-27T20:56:09.677Z,73.20
2022-12-27T20:58:40.202Z,73.03
2022-12-27T21:01:12.855Z,73.20
2022-12-27T21:03:40.435Z,73.83
2022-12-27T21:06:12.094Z,73.54
2022-12-27T21:08:46.464Z,73.56
2022-12-27T21:11:21.565Z,73.19
2022-12-27T21:13:49.208Z,73.65
2022-12-27T21:16:24.138Z,73.89
2022-12-27T21:18:55.555Z,73.60
2022-12-27T21:21:28.696Z,73.32
2022-12-27T21:23:58.922Z,73.57
2022-12-27T21:26:54.587Z,73.76
2022-12-27T21:29:25.329Z,73.76
2022-12-27T21:31:53.548Z,73.62
2022-12-27T21:34:21.422Z,74.21
2022-12-27T21:36:54.369Z,73.67
2022-12-27T21:39:22.028Z,74.34
2022-12-27T21:41:49.385Z,74.36
2022-12-27T21:44:16.709Z,74.20
2022-12-27T21:46:45.583Z,74.33
2022-12-27T21:49:17.152Z,74.47
2022-12-27T21:51:45.048Z,74.48
2022-12-27T21:54:14.204Z,74.52
2022-12-27T21:56:43.817Z,74.08
2022-12-27T21:59:12.220Z,74.39
2022-12-27T22:01:50.111Z,74.40
2022-12-27T22:04:23.944Z,74.71
2022-12-27T22:06:51.621Z,74.62
2022-12-27T22:09:19.523Z,74.77
2022-12-27T22:11:49.714Z,74.77
2022-12-27T22:14:20.593Z,75.33
2022-12-27T22:16:50.918Z,75.29
2022-12-27T22:19:18.341Z,75.50
2022-12-27T22:21:46.312Z,75.83
2022-12-27T22:24:19.599Z,75.84
2022-12-27T22:26:48.788Z,75.57
2022-12-27T22:29:15.872Z,75.59
2022-12-27T22:31:44.483Z,75.95
2022-12-27T22:36:56.926Z,75.85
2022-12-27T22:39:29.404Z,75.96
2022-12-27T22:41:57.079Z,76.12
2022-12-27T22:44:26.464Z,76.04
2022-12-27T22:49:41.549Z,76.13
2022-12-27T22:52:08.927Z,76.20
2022-12-27T22:55:03.284Z,76.21
2022-12-27T22:57:23.841Z,76.44
2022-12-27T22:59:56.503Z,76.53
2022-12-27T23:02:23.982Z,76.55
2022-12-27T23:04:51.123Z,76.79
2022-12-27T23:07:20.342Z,76.65
2022-12-27T23:09:47.626Z,76.62
2022-12-27T23:12:15.499Z,76.92
2022-12-27T23:14:43.307Z,76.82
2022-12-27T23:17:10.831Z,77.07
2022-12-27T23:19:37.851Z,77.47
2022-12-27T23:22:05.801Z,77.36
2022-12-27T23:24:33.409Z,77.65
2022-12-27T23:27:01.499Z,77.55
2022-12-27T23:29:28.842Z,77.80
2022-12-27T23:31:58.761Z,77.88
2022-12-27T23:34:29.375Z,77.93
2022-12-27T23:37:00.178Z,77.58
2022-12-27T23:39:27.396Z,78.00
2022-12-27T23:41:54.823Z,77.91
2022-12-27T23:44:33.211Z,77.96
2022-12-27T23:47:11.324Z,77.90
2022-12-27T23:49:38.385Z,77.84
2022-12-27T23:52:05.939Z,77.45
2022-12-27T23:54:33.043Z,77.48
2022-12-27T23:57:19.525Z,78.17
2022-12-27T23:59:49.455Z,77.78
